Hamilton, Nebraska
Current Conditions -  °F | °C
As of 8:35 PM on Saturday 20 Dec 2014 (Local Time) from KHJH Reporting Station
Haze Haze  
Wind Chill: 32°   Ceiling: Unl
Heat Index: 32°   Visibility: 2.5mi
Dew Point: 31°   Wind: 3mph
Humidity: 96%   Direction: 130°SE
Pressure: 30"   Gusts: NA
Location:  40.3936°N, 97.5387°W
Report Text: KHJH 210235Z AUTO 13003KT 2 1/2SM BR CLR 00/M01 A3000 RMK AO2 T00001006
Loading
Personal Weather Stations






























Interactive Weather Map New forecast layout! Learn more

10-Day Weather Forecast

Advertisements
Track Severe Weather on mobile